sensor_id;sensor_type;location;lat;lon;timestamp;temperature;humidity
666;DHT22;315;48.738;9.126;2022-07-17T00:01:55;17.90;96.80
666;DHT22;315;48.738;9.126;2022-07-17T00:04:21;17.70;98.30
666;DHT22;315;48.738;9.126;2022-07-17T00:06:46;17.70;98.00
666;DHT22;315;48.738;9.126;2022-07-17T00:09:12;17.60;98.10
666;DHT22;315;48.738;9.126;2022-07-17T00:11:37;17.70;97.30
666;DHT22;315;48.738;9.126;2022-07-17T00:14:03;17.80;96.90
666;DHT22;315;48.738;9.126;2022-07-17T00:16:28;17.70;97.50
666;DHT22;315;48.738;9.126;2022-07-17T00:18:54;17.70;98.50
666;DHT22;315;48.738;9.126;2022-07-17T00:21:19;17.60;99.90
666;DHT22;315;48.738;9.126;2022-07-17T00:23:45;17.50;99.90
666;DHT22;315;48.738;9.126;2022-07-17T00:26:10;17.30;99.90
666;DHT22;315;48.738;9.126;2022-07-17T00:28:36;17.10;99.90
666;DHT22;315;48.738;9.126;2022-07-17T00:31:02;17.20;99.90
666;DHT22;315;48.738;9.126;2022-07-17T00:33:27;17.10;99.90
666;DHT22;315;48.738;9.126;2022-07-17T00:35:53;17.10;99.90
666;DHT22;315;48.738;9.126;2022-07-17T00:38:18;17.10;99.90
666;DHT22;315;48.738;9.126;2022-07-17T00:40:43;17.10;99.90
666;DHT22;315;48.738;9.126;2022-07-17T00:43:09;17.10;99.90
666;DHT22;315;48.738;9.126;2022-07-17T00:45:34;17.00;99.90
666;DHT22;315;48.738;9.126;2022-07-17T00:48:03;16.90;99.90
666;DHT22;315;48.738;9.126;2022-07-17T00:50:37;16.80;99.90
666;DHT22;315;48.738;9.126;2022-07-17T00:53:04;16.90;99.90
666;DHT22;315;48.738;9.126;2022-07-17T00:55:30;16.70;99.90
666;DHT22;315;48.738;9.126;2022-07-17T00:57:57;16.90;99.90
666;DHT22;315;48.738;9.126;2022-07-17T01:00:25;16.90;99.90
666;DHT22;315;48.738;9.126;2022-07-17T01:02:52;16.90;99.90
666;DHT22;315;48.738;9.126;2022-07-17T01:05:19;16.90;99.90
666;DHT22;315;48.738;9.126;2022-07-17T01:07:45;16.90;99.90
666;DHT22;315;48.738;9.126;2022-07-17T01:10:12;16.80;99.90
666;DHT22;315;48.738;9.126;2022-07-17T01:12:38;16.80;99.90
666;DHT22;315;48.738;9.126;2022-07-17T01:15:04;16.80;99.90
666;DHT22;315;48.738;9.126;2022-07-17T01:17:30;16.80;99.90
666;DHT22;315;48.738;9.126;2022-07-17T01:19:56;17.00;99.90
666;DHT22;315;48.738;9.126;2022-07-17T01:22:22;16.70;99.90
666;DHT22;315;48.738;9.126;2022-07-17T01:24:47;16.60;99.90
666;DHT22;315;48.738;9.126;2022-07-17T01:27:13;16.50;99.90
666;DHT22;315;48.738;9.126;2022-07-17T01:29:40;16.50;99.90
666;DHT22;315;48.738;9.126;2022-07-17T01:32:05;16.40;99.90
666;DHT22;315;48.738;9.126;2022-07-17T01:34:31;16.30;99.90
666;DHT22;315;48.738;9.126;2022-07-17T01:36:57;16.30;99.90
666;DHT22;315;48.738;9.126;2022-07-17T01:39:23;16.30;99.90
666;DHT22;315;48.738;9.126;2022-07-17T01:42:08;16.30;99.90
666;DHT22;315;48.738;9.126;2022-07-17T01:44:33;16.30;99.90
666;DHT22;315;48.738;9.126;2022-07-17T01:46:59;16.30;99.90
666;DHT22;315;48.738;9.126;2022-07-17T01:49:25;16.20;99.90
666;DHT22;315;48.738;9.126;2022-07-17T01:51:50;16.20;99.90
666;DHT22;315;48.738;9.126;2022-07-17T01:54:16;16.20;99.90
666;DHT22;315;48.738;9.126;2022-07-17T01:56:41;16.10;99.90
666;DHT22;315;48.738;9.126;2022-07-17T01:59:08;16.00;99.90
666;DHT22;315;48.738;9.126;2022-07-17T02:01:33;15.80;99.90
666;DHT22;315;48.738;9.126;2022-07-17T02:03:59;15.70;99.90
666;DHT22;315;48.738;9.126;2022-07-17T02:06:24;15.70;99.90
666;DHT22;315;48.738;9.126;2022-07-17T02:08:50;15.70;99.90
666;DHT22;315;48.738;9.126;2022-07-17T02:11:17;15.70;99.90
666;DHT22;315;48.738;9.126;2022-07-17T02:13:42;15.80;99.90
666;DHT22;315;48.738;9.126;2022-07-17T02:16:08;15.80;99.90
666;DHT22;315;48.738;9.126;2022-07-17T02:18:34;15.80;99.90
666;DHT22;315;48.738;9.126;2022-07-17T02:20:59;15.80;99.90
666;DHT22;315;48.738;9.126;2022-07-17T02:23:25;15.60;99.90
666;DHT22;315;48.738;9.126;2022-07-17T02:25:50;15.50;99.90
666;DHT22;315;48.738;9.126;2022-07-17T02:28:16;15.40;99.90
666;DHT22;315;48.738;9.126;2022-07-17T02:30:42;15.30;99.90
666;DHT22;315;48.738;9.126;2022-07-17T02:33:07;15.30;99.90
666;DHT22;315;48.738;9.126;2022-07-17T02:35:33;15.30;99.90
666;DHT22;315;48.738;9.126;2022-07-17T02:37:59;15.30;99.90
666;DHT22;315;48.738;9.126;2022-07-17T02:40:25;15.30;99.90
666;DHT22;315;48.738;9.126;2022-07-17T02:42:51;15.30;99.90
666;DHT22;315;48.738;9.126;2022-07-17T02:45:16;15.40;99.90
666;DHT22;315;48.738;9.126;2022-07-17T02:47:46;15.40;99.90
666;DHT22;315;48.738;9.126;2022-07-17T02:50:12;15.20;99.90
666;DHT22;315;48.738;9.126;2022-07-17T02:52:38;15.30;99.90
666;DHT22;315;48.738;9.126;2022-07-17T02:55:04;15.30;99.90
666;DHT22;315;48.738;9.126;2022-07-17T02:57:30;15.30;99.90
666;DHT22;315;48.738;9.126;2022-07-17T02:59:55;15.30;99.90
666;DHT22;315;48.738;9.126;2022-07-17T03:02:21;15.10;99.90
666;DHT22;315;48.738;9.126;2022-07-17T03:04:47;15.10;99.90
666;DHT22;315;48.738;9.126;2022-07-17T03:07:12;15.10;99.90
666;DHT22;315;48.738;9.126;2022-07-17T03:09:38;15.00;99.90
666;DHT22;315;48.738;9.126;2022-07-17T03:12:03;15.00;99.90
666;DHT22;315;48.738;9.126;2022-07-17T03:14:29;15.00;99.90
666;DHT22;315;48.738;9.126;2022-07-17T03:16:55;15.00;99.90
666;DHT22;315;48.738;9.126;2022-07-17T03:19:20;15.00;99.90
666;DHT22;315;48.738;9.126;2022-07-17T03:21:46;15.00;99.90
666;DHT22;315;48.738;9.126;2022-07-17T03:24:11;14.90;99.90
666;DHT22;315;48.738;9.126;2022-07-17T03:26:37;14.80;99.90
666;DHT22;315;48.738;9.126;2022-07-17T03:29:02;14.80;99.90
666;DHT22;315;48.738;9.126;2022-07-17T03:31:28;14.80;99.90
666;DHT22;315;48.738;9.126;2022-07-17T03:33:53;14.70;99.90
666;DHT22;315;48.738;9.126;2022-07-17T03:36:19;14.70;99.90
666;DHT22;315;48.738;9.126;2022-07-17T03:38:45;14.70;99.90
666;DHT22;315;48.738;9.126;2022-07-17T03:41:11;14.70;99.90
666;DHT22;315;48.738;9.126;2022-07-17T03:43:37;14.80;99.90
666;DHT22;315;48.738;9.126;2022-07-17T03:46:02;14.80;99.90
666;DHT22;315;48.738;9.126;2022-07-17T03:48:29;14.90;99.90
666;DHT22;315;48.738;9.126;2022-07-17T03:50:54;14.90;99.90
666;DHT22;315;48.738;9.126;2022-07-17T03:53:20;14.90;99.90
666;DHT22;315;48.738;9.126;2022-07-17T03:55:45;14.90;99.90
666;DHT22;315;48.738;9.126;2022-07-17T03:58:11;14.90;99.90
666;DHT22;315;48.738;9.126;2022-07-17T04:00:36;14.90;99.90
666;DHT22;315;48.738;9.126;2022-07-17T04:03:02;15.00;99.90
666;DHT22;315;48.738;9.126;2022-07-17T04:05:27;15.00;99.90
666;DHT22;315;48.738;9.126;2022-07-17T04:07:53;15.10;99.90
666;DHT22;315;48.738;9.126;2022-07-17T04:10:18;15.10;99.90
666;DHT22;315;48.738;9.126;2022-07-17T04:12:44;15.10;99.90
666;DHT22;315;48.738;9.126;2022-07-17T04:15:10;15.10;99.90
666;DHT22;315;48.738;9.126;2022-07-17T04:17:36;15.10;99.90
666;DHT22;315;48.738;9.126;2022-07-17T04:20:03;15.20;99.90
666;DHT22;315;48.738;9.126;2022-07-17T04:22:28;15.20;99.90
666;DHT22;315;48.738;9.126;2022-07-17T04:24:54;15.30;99.90
666;DHT22;315;48.738;9.126;2022-07-17T04:27:20;15.40;99.90
666;DHT22;315;48.738;9.126;2022-07-17T04:29:45;15.50;99.90
666;DHT22;315;48.738;9.126;2022-07-17T04:32:11;15.50;99.90
666;DHT22;315;48.738;9.126;2022-07-17T04:34:36;15.70;99.90
666;DHT22;315;48.738;9.126;2022-07-17T04:37:03;15.80;99.90
666;DHT22;315;48.738;9.126;2022-07-17T04:39:29;15.90;99.90
666;DHT22;315;48.738;9.126;2022-07-17T04:41:55;15.90;99.90
666;DHT22;315;48.738;9.126;2022-07-17T04:44:21;16.00;99.90
666;DHT22;315;48.738;9.126;2022-07-17T04:46:47;16.10;99.90
666;DHT22;315;48.738;9.126;2022-07-17T04:49:12;16.20;99.90
666;DHT22;315;48.738;9.126;2022-07-17T04:51:38;16.20;99.90
666;DHT22;315;48.738;9.126;2022-07-17T04:54:03;16.30;99.90
666;DHT22;315;48.738;9.126;2022-07-17T04:56:29;16.50;99.90
666;DHT22;315;48.738;9.126;2022-07-17T04:58:54;16.60;99.90
666;DHT22;315;48.738;9.126;2022-07-17T05:01:20;16.80;99.90
666;DHT22;315;48.738;9.126;2022-07-17T05:03:45;17.00;99.90
666;DHT22;315;48.738;9.126;2022-07-17T05:06:11;17.30;99.90
666;DHT22;315;48.738;9.126;2022-07-17T05:08:37;17.40;99.90
666;DHT22;315;48.738;9.126;2022-07-17T05:11:02;17.50;99.90
666;DHT22;315;48.738;9.126;2022-07-17T05:13:28;17.70;99.90
666;DHT22;315;48.738;9.126;2022-07-17T05:15:53;17.70;99.90
666;DHT22;315;48.738;9.126;2022-07-17T05:18:19;17.90;99.90
666;DHT22;315;48.738;9.126;2022-07-17T05:20:45;18.00;99.90
666;DHT22;315;48.738;9.126;2022-07-17T05:23:10;18.10;99.90
666;DHT22;315;48.738;9.126;2022-07-17T05:25:36;18.30;99.90
666;DHT22;315;48.738;9.126;2022-07-17T05:28:02;18.60;99.90
666;DHT22;315;48.738;9.126;2022-07-17T05:30:28;18.60;99.90
666;DHT22;315;48.738;9.126;2022-07-17T05:32:53;18.70;99.90
666;DHT22;315;48.738;9.126;2022-07-17T05:35:19;18.80;99.90
666;DHT22;315;48.738;9.126;2022-07-17T05:37:45;19.00;99.90
666;DHT22;315;48.738;9.126;2022-07-17T05:40:10;19.00;99.90
666;DHT22;315;48.738;9.126;2022-07-17T05:42:36;19.20;99.90
666;DHT22;315;48.738;9.126;2022-07-17T05:45:02;19.30;99.90
666;DHT22;315;48.738;9.126;2022-07-17T05:47:28;19.40;99.90
666;DHT22;315;48.738;9.126;2022-07-17T05:49:53;19.50;99.90
666;DHT22;315;48.738;9.126;2022-07-17T05:52:19;19.40;99.90
666;DHT22;315;48.738;9.126;2022-07-17T05:54:44;19.50;99.90
666;DHT22;315;48.738;9.126;2022-07-17T05:57:10;19.70;99.90
666;DHT22;315;48.738;9.126;2022-07-17T05:59:35;19.80;99.90
666;DHT22;315;48.738;9.126;2022-07-17T06:02:01;20.00;99.90
666;DHT22;315;48.738;9.126;2022-07-17T06:04:26;20.20;99.90
666;DHT22;315;48.738;9.126;2022-07-17T06:06:52;20.40;99.90
666;DHT22;315;48.738;9.126;2022-07-17T06:09:17;20.90;99.90
666;DHT22;315;48.738;9.126;2022-07-17T06:11:43;20.40;99.90
666;DHT22;315;48.738;9.126;2022-07-17T06:14:09;20.50;99.90
666;DHT22;315;48.738;9.126;2022-07-17T06:16:34;20.60;99.90
666;DHT22;315;48.738;9.126;2022-07-17T06:19:00;20.60;99.70
666;DHT22;315;48.738;9.126;2022-07-17T06:21:25;20.60;99.40
666;DHT22;315;48.738;9.126;2022-07-17T06:23:51;20.70;99.10
666;DHT22;315;48.738;9.126;2022-07-17T06:26:16;20.90;98.60
666;DHT22;315;48.738;9.126;2022-07-17T06:28:42;21.10;98.00
666;DHT22;315;48.738;9.126;2022-07-17T06:31:07;21.30;97.00
666;DHT22;315;48.738;9.126;2022-07-17T06:33:33;21.50;96.90
666;DHT22;315;48.738;9.126;2022-07-17T06:35:58;21.60;96.00
666;DHT22;315;48.738;9.126;2022-07-17T06:38:24;21.80;95.60
666;DHT22;315;48.738;9.126;2022-07-17T06:40:50;22.00;95.30
666;DHT22;315;48.738;9.126;2022-07-17T06:43:15;22.20;94.70
666;DHT22;315;48.738;9.126;2022-07-17T06:45:41;22.20;94.20
666;DHT22;315;48.738;9.126;2022-07-17T06:48:06;22.20;94.10
666;DHT22;315;48.738;9.126;2022-07-17T06:50:32;22.30;94.10
666;DHT22;315;48.738;9.126;2022-07-17T06:52:57;22.40;93.70
666;DHT22;315;48.738;9.126;2022-07-17T06:55:23;22.60;93.60
666;DHT22;315;48.738;9.126;2022-07-17T06:57:49;22.90;92.40
666;DHT22;315;48.738;9.126;2022-07-17T07:00:14;22.90;91.90
666;DHT22;315;48.738;9.126;2022-07-17T07:02:40;23.10;91.60
666;DHT22;315;48.738;9.126;2022-07-17T07:05:06;23.40;90.80
666;DHT22;315;48.738;9.126;2022-07-17T07:07:31;23.60;90.00
666;DHT22;315;48.738;9.126;2022-07-17T07:09:57;23.80;88.40
666;DHT22;315;48.738;9.126;2022-07-17T07:12:22;23.90;86.70
666;DHT22;315;48.738;9.126;2022-07-17T07:14:48;23.90;85.60
666;DHT22;315;48.738;9.126;2022-07-17T07:17:13;24.00;85.00
666;DHT22;315;48.738;9.126;2022-07-17T07:19:39;24.20;84.40
666;DHT22;315;48.738;9.126;2022-07-17T07:22:04;24.40;83.50
666;DHT22;315;48.738;9.126;2022-07-17T07:24:30;24.60;81.50
666;DHT22;315;48.738;9.126;2022-07-17T07:26:55;24.80;80.50
666;DHT22;315;48.738;9.126;2022-07-17T07:29:21;24.90;80.90
666;DHT22;315;48.738;9.126;2022-07-17T07:31:47;25.00;79.70
666;DHT22;315;48.738;9.126;2022-07-17T07:34:13;25.00;79.30
666;DHT22;315;48.738;9.126;2022-07-17T07:36:38;25.10;79.80
666;DHT22;315;48.738;9.126;2022-07-17T07:39:04;25.40;79.30
666;DHT22;315;48.738;9.126;2022-07-17T07:41:29;25.50;77.20
666;DHT22;315;48.738;9.126;2022-07-17T07:43:55;25.70;76.80
666;DHT22;315;48.738;9.126;2022-07-17T07:46:21;25.80;76.70
666;DHT22;315;48.738;9.126;2022-07-17T07:48:46;26.00;75.00
666;DHT22;315;48.738;9.126;2022-07-17T07:51:12;26.00;74.20
666;DHT22;315;48.738;9.126;2022-07-17T07:53:37;26.10;73.00
666;DHT22;315;48.738;9.126;2022-07-17T07:56:03;26.00;72.10
666;DHT22;315;48.738;9.126;2022-07-17T07:58:29;26.10;71.60
666;DHT22;315;48.738;9.126;2022-07-17T08:00:54;26.30;70.20
666;DHT22;315;48.738;9.126;2022-07-17T08:03:20;26.30;71.20
666;DHT22;315;48.738;9.126;2022-07-17T08:05:46;26.30;71.80
666;DHT22;315;48.738;9.126;2022-07-17T08:08:11;26.60;70.50
666;DHT22;315;48.738;9.126;2022-07-17T08:10:37;26.80;68.40
666;DHT22;315;48.738;9.126;2022-07-17T08:13:02;26.90;67.20
666;DHT22;315;48.738;9.126;2022-07-17T08:15:28;26.80;67.20
666;DHT22;315;48.738;9.126;2022-07-17T08:17:54;26.70;67.20
666;DHT22;315;48.738;9.126;2022-07-17T08:20:21;26.90;66.20
666;DHT22;315;48.738;9.126;2022-07-17T08:22:47;27.20;66.30
666;DHT22;315;48.738;9.126;2022-07-17T08:25:14;27.60;64.80
666;DHT22;315;48.738;9.126;2022-07-17T08:27:41;27.90;64.40
666;DHT22;315;48.738;9.126;2022-07-17T08:30:09;27.90;62.90
666;DHT22;315;48.738;9.126;2022-07-17T08:32:36;27.90;62.60
666;DHT22;315;48.738;9.126;2022-07-17T08:35:02;28.10;62.40
666;DHT22;315;48.738;9.126;2022-07-17T08:37:28;28.30;62.20
666;DHT22;315;48.738;9.126;2022-07-17T08:39:54;28.60;60.50
666;DHT22;315;48.738;9.126;2022-07-17T08:42:20;28.60;59.80
666;DHT22;315;48.738;9.126;2022-07-17T08:44:45;28.70;59.80
666;DHT22;315;48.738;9.126;2022-07-17T08:47:12;28.80;58.40
666;DHT22;315;48.738;9.126;2022-07-17T08:49:43;28.70;59.00
666;DHT22;315;48.738;9.126;2022-07-17T08:52:10;28.70;59.00
666;DHT22;315;48.738;9.126;2022-07-17T08:54:36;28.90;58.40
666;DHT22;315;48.738;9.126;2022-07-17T08:57:02;29.00;58.30
666;DHT22;315;48.738;9.126;2022-07-17T08:59:28;29.20;57.80
666;DHT22;315;48.738;9.126;2022-07-17T09:01:53;29.40;57.50
666;DHT22;315;48.738;9.126;2022-07-17T09:04:19;29.60;57.20
666;DHT22;315;48.738;9.126;2022-07-17T09:06:44;29.90;55.90
666;DHT22;315;48.738;9.126;2022-07-17T09:09:12;29.90;55.70
666;DHT22;315;48.738;9.126;2022-07-17T09:11:42;29.70;55.10
666;DHT22;315;48.738;9.126;2022-07-17T09:14:08;29.70;55.50
666;DHT22;315;48.738;9.126;2022-07-17T09:16:35;29.80;55.20
666;DHT22;315;48.738;9.126;2022-07-17T09:19:01;29.90;55.30
666;DHT22;315;48.738;9.126;2022-07-17T09:21:28;29.80;54.20
666;DHT22;315;48.738;9.126;2022-07-17T09:24:05;29.90;54.40
666;DHT22;315;48.738;9.126;2022-07-17T09:26:33;29.90;52.80
666;DHT22;315;48.738;9.126;2022-07-17T09:29:01;29.70;53.00
666;DHT22;315;48.738;9.126;2022-07-17T09:31:29;29.50;52.10
666;DHT22;315;48.738;9.126;2022-07-17T09:33:55;29.50;53.20
666;DHT22;315;48.738;9.126;2022-07-17T09:36:22;29.80;52.50
666;DHT22;315;48.738;9.126;2022-07-17T09:38:52;29.70;52.20
666;DHT22;315;48.738;9.126;2022-07-17T09:41:18;29.90;51.50
666;DHT22;315;48.738;9.126;2022-07-17T09:46:16;30.40;51.30
666;DHT22;315;48.738;9.126;2022-07-17T09:48:47;30.50;51.60
666;DHT22;315;48.738;9.126;2022-07-17T09:51:16;30.80;51.40
666;DHT22;315;48.738;9.126;2022-07-17T09:53:44;31.50;50.00
666;DHT22;315;48.738;9.126;2022-07-17T09:56:12;31.90;48.60
666;DHT22;315;48.738;9.126;2022-07-17T09:58:49;31.80;48.10
666;DHT22;315;48.738;9.126;2022-07-17T10:01:16;32.50;47.20
666;DHT22;315;48.738;9.126;2022-07-17T10:03:45;32.60;46.00
666;DHT22;315;48.738;9.126;2022-07-17T10:06:11;32.80;46.10
666;DHT22;315;48.738;9.126;2022-07-17T10:08:38;32.70;45.40
666;DHT22;315;48.738;9.126;2022-07-17T10:11:07;33.10;45.40
666;DHT22;315;48.738;9.126;2022-07-17T10:13:36;33.50;44.80
666;DHT22;315;48.738;9.126;2022-07-17T10:16:03;33.90;44.70
666;DHT22;315;48.738;9.126;2022-07-17T10:18:42;34.40;43.50
666;DHT22;315;48.738;9.126;2022-07-17T10:21:18;34.40;43.60
666;DHT22;315;48.738;9.126;2022-07-17T10:26:41;35.90;42.50
666;DHT22;315;48.738;9.126;2022-07-17T10:29:30;37.00;39.70
666;DHT22;315;48.738;9.126;2022-07-17T10:31:58;36.90;39.10
666;DHT22;315;48.738;9.126;2022-07-17T10:34:46;37.10;39.20
666;DHT22;315;48.738;9.126;2022-07-17T10:37:44;37.80;37.70
666;DHT22;315;48.738;9.126;2022-07-17T10:40:11;37.40;37.30
666;DHT22;315;48.738;9.126;2022-07-17T10:42:57;37.90;37.20
666;DHT22;315;48.738;9.126;2022-07-17T10:45:31;38.50;35.50
666;DHT22;315;48.738;9.126;2022-07-17T10:48:00;39.30;35.20
666;DHT22;315;48.738;9.126;2022-07-17T10:50:37;39.30;35.00
666;DHT22;315;48.738;9.126;2022-07-17T10:53:28;40.40;33.60
666;DHT22;315;48.738;9.126;2022-07-17T10:56:07;37.90;34.50
666;DHT22;315;48.738;9.126;2022-07-17T10:58:35;39.00;34.60
666;DHT22;315;48.738;9.126;2022-07-17T11:01:12;39.30;34.10
666;DHT22;315;48.738;9.126;2022-07-17T11:06:16;38.10;33.50
666;DHT22;315;48.738;9.126;2022-07-17T11:08:51;37.60;34.90
666;DHT22;315;48.738;9.126;2022-07-17T11:11:20;39.10;34.10
666;DHT22;315;48.738;9.126;2022-07-17T11:13:46;39.90;33.00
666;DHT22;315;48.738;9.126;2022-07-17T11:16:12;39.60;32.60
666;DHT22;315;48.738;9.126;2022-07-17T11:18:46;40.60;31.90
666;DHT22;315;48.738;9.126;2022-07-17T11:21:13;41.80;33.20
666;DHT22;315;48.738;9.126;2022-07-17T11:23:53;42.60;33.50
666;DHT22;315;48.738;9.126;2022-07-17T11:26:19;41.80;33.80
666;DHT22;315;48.738;9.126;2022-07-17T11:28:49;42.90;33.30
666;DHT22;315;48.738;9.126;2022-07-17T11:31:26;42.90;33.40
666;DHT22;315;48.738;9.126;2022-07-17T11:34:04;42.50;33.40
666;DHT22;315;48.738;9.126;2022-07-17T11:36:35;42.80;33.10
666;DHT22;315;48.738;9.126;2022-07-17T11:39:05;43.10;33.20
666;DHT22;315;48.738;9.126;2022-07-17T11:41:40;44.40;34.20
666;DHT22;315;48.738;9.126;2022-07-17T11:44:12;44.30;24.10
666;DHT22;315;48.738;9.126;2022-07-17T11:46:41;44.30;23.80
666;DHT22;315;48.738;9.126;2022-07-17T11:49:07;45.60;23.30
666;DHT22;315;48.738;9.126;2022-07-17T11:51:43;46.20;22.70
666;DHT22;315;48.738;9.126;2022-07-17T11:54:18;45.40;22.20
666;DHT22;315;48.738;9.126;2022-07-17T11:56:52;45.40;22.30
666;DHT22;315;48.738;9.126;2022-07-17T11:59:27;45.50;22.50
666;DHT22;315;48.738;9.126;2022-07-17T12:01:53;45.50;21.60
666;DHT22;315;48.738;9.126;2022-07-17T12:04:19;44.50;22.40
666;DHT22;315;48.738;9.126;2022-07-17T12:06:57;45.30;22.60
666;DHT22;315;48.738;9.126;2022-07-17T12:09:31;45.00;21.90
666;DHT22;315;48.738;9.126;2022-07-17T12:12:00;45.50;22.90
666;DHT22;315;48.738;9.126;2022-07-17T12:14:25;45.70;22.20
666;DHT22;315;48.738;9.126;2022-07-17T12:16:51;46.30;22.10
666;DHT22;315;48.738;9.126;2022-07-17T12:19:19;47.00;21.80
666;DHT22;315;48.738;9.126;2022-07-17T12:22:03;47.70;21.10
666;DHT22;315;48.738;9.126;2022-07-17T12:24:37;47.20;21.60
666;DHT22;315;48.738;9.126;2022-07-17T12:27:09;45.40;22.10
666;DHT22;315;48.738;9.126;2022-07-17T12:29:35;45.10;21.50
666;DHT22;315;48.738;9.126;2022-07-17T12:34:34;45.10;21.10
666;DHT22;315;48.738;9.126;2022-07-17T12:37:00;45.40;20.90
666;DHT22;315;48.738;9.126;2022-07-17T12:39:25;45.70;20.60
666;DHT22;315;48.738;9.126;2022-07-17T12:41:51;46.70;20.10
666;DHT22;315;48.738;9.126;2022-07-17T12:44:16;46.80;19.70
666;DHT22;315;48.738;9.126;2022-07-17T12:46:42;47.10;19.20
666;DHT22;315;48.738;9.126;2022-07-17T12:49:07;47.40;19.60
666;DHT22;315;48.738;9.126;2022-07-17T12:51:33;45.90;19.70
666;DHT22;315;48.738;9.126;2022-07-17T12:53:59;45.50;20.50
666;DHT22;315;48.738;9.126;2022-07-17T12:56:24;47.40;20.60
666;DHT22;315;48.738;9.126;2022-07-17T12:58:50;47.80;20.20
666;DHT22;315;48.738;9.126;2022-07-17T13:01:16;47.70;20.40
666;DHT22;315;48.738;9.126;2022-07-17T13:03:42;48.40;20.40
666;DHT22;315;48.738;9.126;2022-07-17T13:06:08;48.90;20.30
666;DHT22;315;48.738;9.126;2022-07-17T13:08:34;49.80;20.00
666;DHT22;315;48.738;9.126;2022-07-17T13:11:00;50.10;19.70
666;DHT22;315;48.738;9.126;2022-07-17T13:13:25;50.40;19.50
666;DHT22;315;48.738;9.126;2022-07-17T13:15:51;49.50;19.90
666;DHT22;315;48.738;9.126;2022-07-17T13:18:17;48.80;19.60
666;DHT22;315;48.738;9.126;2022-07-17T13:20:42;48.70;20.00
666;DHT22;315;48.738;9.126;2022-07-17T13:23:08;47.40;19.90
666;DHT22;315;48.738;9.126;2022-07-17T13:25:33;46.90;20.00
666;DHT22;315;48.738;9.126;2022-07-17T13:27:59;47.20;20.00
666;DHT22;315;48.738;9.126;2022-07-17T13:30:25;46.30;20.00
666;DHT22;315;48.738;9.126;2022-07-17T13:32:51;44.70;20.40
666;DHT22;315;48.738;9.126;2022-07-17T13:35:18;43.40;20.70
666;DHT22;315;48.738;9.126;2022-07-17T13:37:44;42.80;21.20
666;DHT22;315;48.738;9.126;2022-07-17T13:40:10;42.00;21.00
666;DHT22;315;48.738;9.126;2022-07-17T13:42:36;39.80;22.30
666;DHT22;315;48.738;9.126;2022-07-17T13:45:02;38.70;22.60
666;DHT22;315;48.738;9.126;2022-07-17T13:47:28;38.00;23.10
666;DHT22;315;48.738;9.126;2022-07-17T13:49:54;37.40;23.90
666;DHT22;315;48.738;9.126;2022-07-17T13:52:19;36.90;23.50
666;DHT22;315;48.738;9.126;2022-07-17T13:54:45;35.50;23.60
666;DHT22;315;48.738;9.126;2022-07-17T13:57:10;35.20;23.90
666;DHT22;315;48.738;9.126;2022-07-17T13:59:36;34.80;23.50
666;DHT22;315;48.738;9.126;2022-07-17T14:02:01;34.40;23.70
666;DHT22;315;48.738;9.126;2022-07-17T14:04:27;33.80;23.90
666;DHT22;315;48.738;9.126;2022-07-17T14:06:52;33.10;24.30
666;DHT22;315;48.738;9.126;2022-07-17T14:09:18;33.00;24.50
666;DHT22;315;48.738;9.126;2022-07-17T14:11:44;32.80;25.20
666;DHT22;315;48.738;9.126;2022-07-17T14:14:09;32.70;25.30
666;DHT22;315;48.738;9.126;2022-07-17T14:16:35;32.20;25.60
666;DHT22;315;48.738;9.126;2022-07-17T14:19:00;31.80;25.50
666;DHT22;315;48.738;9.126;2022-07-17T14:21:31;31.30;25.80
666;DHT22;315;48.738;9.126;2022-07-17T14:23:57;31.00;26.00
666;DHT22;315;48.738;9.126;2022-07-17T14:26:23;30.80;25.90
666;DHT22;315;48.738;9.126;2022-07-17T14:28:48;30.50;26.30
666;DHT22;315;48.738;9.126;2022-07-17T14:31:14;30.50;26.50
666;DHT22;315;48.738;9.126;2022-07-17T14:33:41;30.40;27.00
666;DHT22;315;48.738;9.126;2022-07-17T14:36:08;30.30;27.00
666;DHT22;315;48.738;9.126;2022-07-17T14:38:33;30.20;27.30
666;DHT22;315;48.738;9.126;2022-07-17T14:40:59;30.20;27.70
666;DHT22;315;48.738;9.126;2022-07-17T14:43:24;30.10;26.70
666;DHT22;315;48.738;9.126;2022-07-17T14:45:50;29.90;27.30
666;DHT22;315;48.738;9.126;2022-07-17T14:48:15;29.80;27.20
666;DHT22;315;48.738;9.126;2022-07-17T14:50:41;29.80;26.90
666;DHT22;315;48.738;9.126;2022-07-17T14:53:06;29.70;27.00
666;DHT22;315;48.738;9.126;2022-07-17T14:55:32;29.70;26.60
666;DHT22;315;48.738;9.126;2022-07-17T14:57:58;29.70;26.50
666;DHT22;315;48.738;9.126;2022-07-17T15:00:23;29.60;26.20
666;DHT22;315;48.738;9.126;2022-07-17T15:02:49;29.50;26.10
666;DHT22;315;48.738;9.126;2022-07-17T15:05:14;29.70;26.70
666;DHT22;315;48.738;9.126;2022-07-17T15:07:40;29.60;26.20
666;DHT22;315;48.738;9.126;2022-07-17T15:10:06;29.50;29.70
666;DHT22;315;48.738;9.126;2022-07-17T15:12:32;29.30;30.00
666;DHT22;315;48.738;9.126;2022-07-17T15:14:57;29.10;26.50
666;DHT22;315;48.738;9.126;2022-07-17T15:17:23;29.10;25.30
666;DHT22;315;48.738;9.126;2022-07-17T15:19:49;29.00;26.10
666;DHT22;315;48.738;9.126;2022-07-17T15:22:14;29.00;26.10
666;DHT22;315;48.738;9.126;2022-07-17T15:24:40;29.10;27.50
666;DHT22;315;48.738;9.126;2022-07-17T15:27:05;29.10;28.00
666;DHT22;315;48.738;9.126;2022-07-17T15:29:31;29.20;28.80
666;DHT22;315;48.738;9.126;2022-07-17T15:31:56;29.20;27.90
666;DHT22;315;48.738;9.126;2022-07-17T15:34:22;29.10;27.80
666;DHT22;315;48.738;9.126;2022-07-17T15:36:47;29.00;27.60
666;DHT22;315;48.738;9.126;2022-07-17T15:39:13;29.00;27.70
666;DHT22;315;48.738;9.126;2022-07-17T15:41:39;29.00;27.60
666;DHT22;315;48.738;9.126;2022-07-17T15:44:04;28.90;26.90
666;DHT22;315;48.738;9.126;2022-07-17T15:46:31;28.90;26.80
666;DHT22;315;48.738;9.126;2022-07-17T15:48:56;28.80;27.20
666;DHT22;315;48.738;9.126;2022-07-17T15:51:23;28.80;27.50
666;DHT22;315;48.738;9.126;2022-07-17T15:53:49;28.80;28.00
666;DHT22;315;48.738;9.126;2022-07-17T15:56:14;28.70;28.00
666;DHT22;315;48.738;9.126;2022-07-17T15:58:40;28.60;28.30
666;DHT22;315;48.738;9.126;2022-07-17T16:01:05;28.60;29.00
666;DHT22;315;48.738;9.126;2022-07-17T16:03:31;28.70;27.90
666;DHT22;315;48.738;9.126;2022-07-17T16:05:56;28.60;28.70
666;DHT22;315;48.738;9.126;2022-07-17T16:08:22;28.60;29.20
666;DHT22;315;48.738;9.126;2022-07-17T16:10:47;28.50;29.50
666;DHT22;315;48.738;9.126;2022-07-17T16:13:13;28.40;30.00
666;DHT22;315;48.738;9.126;2022-07-17T16:15:38;28.20;30.00
666;DHT22;315;48.738;9.126;2022-07-17T16:18:04;28.20;30.50
666;DHT22;315;48.738;9.126;2022-07-17T16:20:29;28.30;30.00
666;DHT22;315;48.738;9.126;2022-07-17T16:22:55;28.40;30.90
666;DHT22;315;48.738;9.126;2022-07-17T16:25:21;28.40;30.90
666;DHT22;315;48.738;9.126;2022-07-17T16:27:46;28.40;30.80
666;DHT22;315;48.738;9.126;2022-07-17T16:30:12;28.40;30.70
666;DHT22;315;48.738;9.126;2022-07-17T16:32:38;28.30;31.10
666;DHT22;315;48.738;9.126;2022-07-17T16:35:04;28.20;31.30
666;DHT22;315;48.738;9.126;2022-07-17T16:37:29;28.20;31.50
666;DHT22;315;48.738;9.126;2022-07-17T16:39:55;28.10;31.40
666;DHT22;315;48.738;9.126;2022-07-17T16:42:21;28.00;30.80